createdAt,value
2022-12-23T00:00:37.884Z,9.64
2022-12-23T00:03:05.046Z,9.61
2022-12-23T00:05:38.070Z,9.58
2022-12-23T00:08:06.095Z,9.56
2022-12-23T00:10:33.930Z,9.53
2022-12-23T00:13:19.485Z,9.54
2022-12-23T00:15:46.389Z,9.57
2022-12-23T00:18:13.071Z,9.59
2022-12-23T00:20:39.673Z,9.59
2022-12-23T00:23:06.589Z,9.58
2022-12-23T00:25:43.958Z,9.57
2022-12-23T00:28:13.633Z,9.56
2022-12-23T00:30:58.994Z,9.53
2022-12-23T00:33:28.930Z,9.48
2022-12-23T00:35:55.971Z,9.46
2022-12-23T00:38:41.645Z,9.48
2022-12-23T00:41:35.584Z,9.52
2022-12-23T00:44:03.766Z,9.56
2022-12-23T00:46:30.777Z,9.57
2022-12-23T00:49:16.514Z,9.57
2022-12-23T00:51:43.174Z,9.56
2022-12-23T00:54:09.722Z,9.55
2022-12-23T00:56:36.466Z,9.52
2022-12-23T00:59:03.184Z,9.45
2022-12-23T01:01:48.758Z,9.40
2022-12-23T01:04:35.934Z,9.42
2022-12-23T01:07:03.515Z,9.48
2022-12-23T01:09:30.497Z,9.52
2022-12-23T01:11:57.261Z,9.56
2022-12-23T01:14:24.801Z,9.58
2022-12-23T01:16:51.738Z,9.58
2022-12-23T01:19:19.176Z,9.57
2022-12-23T01:21:45.926Z,9.54
2022-12-23T01:24:12.627Z,9.52
2022-12-23T01:26:39.221Z,9.50
2022-12-23T01:29:05.985Z,9.50
2022-12-23T01:31:32.811Z,9.53
2022-12-23T01:33:59.564Z,9.56
2022-12-23T01:36:26.410Z,9.59
2022-12-23T01:38:53.216Z,9.61
2022-12-23T01:41:42.172Z,9.59
2022-12-23T01:45:07.714Z,9.57
2022-12-23T01:47:49.483Z,9.54
2022-12-23T01:50:54.832Z,9.50
2022-12-23T01:53:30.630Z,9.46
2022-12-23T01:56:02.944Z,9.48
2022-12-23T01:58:37.963Z,9.53
2022-12-23T02:01:24.556Z,9.55
2022-12-23T02:03:54.990Z,9.56
2022-12-23T02:06:43.409Z,9.57
2022-12-23T02:09:18.671Z,9.55
2022-12-23T02:12:31.790Z,9.53
2022-12-23T02:15:42.051Z,9.46
2022-12-23T02:18:21.259Z,9.39
2022-12-23T02:20:53.904Z,9.39
2022-12-23T02:23:48.546Z,9.41
2022-12-23T02:26:27.520Z,9.45
2022-12-23T02:29:00.230Z,9.48
2022-12-23T02:31:38.796Z,9.48
2022-12-23T02:34:17.570Z,9.47
2022-12-23T02:37:09.407Z,9.44
2022-12-23T02:39:49.373Z,9.41
2022-12-23T02:42:25.976Z,9.40
2022-12-23T02:45:01.765Z,9.42
2022-12-23T02:47:52.687Z,9.46
2022-12-23T02:50:36.317Z,9.48
2022-12-23T02:53:27.273Z,9.49
2022-12-23T02:55:56.364Z,9.50
2022-12-23T02:58:29.276Z,9.49
2022-12-23T03:00:58.117Z,9.47
2022-12-23T03:03:26.271Z,9.44
2022-12-23T03:05:54.426Z,9.43
2022-12-23T03:08:30.343Z,9.42
2022-12-23T03:11:15.208Z,9.44
2022-12-23T03:14:11.007Z,9.48
2022-12-23T03:17:21.045Z,9.52
2022-12-23T03:19:57.187Z,9.52
2022-12-23T03:22:40.796Z,9.53
2022-12-23T03:25:37.944Z,9.52
2022-12-23T03:28:15.937Z,9.51
2022-12-23T03:30:46.564Z,9.51
2022-12-23T03:33:42.460Z,9.50
2022-12-23T03:36:18.277Z,9.52
2022-12-23T03:38:46.165Z,9.56
2022-12-23T03:41:18.415Z,9.57
2022-12-23T03:43:55.116Z,9.57
2022-12-23T03:46:38.037Z,9.57
2022-12-23T03:49:15.317Z,9.56
2022-12-23T03:51:55.471Z,9.56
2022-12-23T03:54:31.684Z,9.54
2022-12-23T03:57:03.582Z,9.51
2022-12-23T03:59:37.194Z,9.48
2022-12-23T04:02:09.899Z,9.45
2022-12-23T04:04:45.479Z,9.46
2022-12-23T04:07:30.576Z,9.47
2022-12-23T04:09:58.715Z,9.49
2022-12-23T04:12:30.132Z,9.50
2022-12-23T04:14:57.395Z,9.51
2022-12-23T04:17:24.189Z,9.51
2022-12-23T04:19:52.449Z,9.52
2022-12-23T04:22:19.233Z,9.51
2022-12-23T04:24:45.978Z,9.53
2022-12-23T04:27:14.731Z,9.56
2022-12-23T04:29:41.659Z,9.57
2022-12-23T04:32:09.513Z,9.56
2022-12-23T04:34:36.211Z,9.54
2022-12-23T04:37:02.910Z,9.51
2022-12-23T04:39:29.553Z,9.46
2022-12-23T04:41:56.275Z,9.42
2022-12-23T04:44:23.018Z,9.40
2022-12-23T04:46:49.757Z,9.38
2022-12-23T04:49:16.602Z,9.39
2022-12-23T04:51:43.272Z,9.43
2022-12-23T04:54:09.810Z,9.46
2022-12-23T04:56:36.528Z,9.48
2022-12-23T04:59:04.273Z,9.48
2022-12-23T05:01:31.129Z,9.47
2022-12-23T05:03:57.876Z,9.45
2022-12-23T05:06:24.472Z,9.44
2022-12-23T05:08:51.238Z,9.42
2022-12-23T05:11:17.998Z,9.41
2022-12-23T05:13:44.906Z,9.41
2022-12-23T05:16:11.585Z,9.42
2022-12-23T05:18:38.311Z,9.45
2022-12-23T05:21:05.340Z,9.48
2022-12-23T05:23:32.108Z,9.48
2022-12-23T05:25:59.053Z,9.49
2022-12-23T05:28:25.889Z,9.47
2022-12-23T05:31:03.871Z,9.45
2022-12-23T05:33:32.833Z,9.46
2022-12-23T05:35:59.729Z,9.45
2022-12-23T05:38:27.163Z,9.48
2022-12-23T05:40:54.121Z,9.53
2022-12-23T05:43:21.424Z,9.57
2022-12-23T05:45:49.564Z,9.59
2022-12-23T05:48:16.565Z,9.62
2022-12-23T05:50:43.329Z,9.62
2022-12-23T05:53:10.222Z,9.63
2022-12-23T05:55:37.062Z,9.59
2022-12-23T05:58:03.815Z,9.57
2022-12-23T06:00:30.721Z,9.54
2022-12-23T06:02:57.630Z,9.57
2022-12-23T06:05:24.617Z,9.62
2022-12-23T06:07:51.566Z,9.66
2022-12-23T06:10:18.823Z,9.69
2022-12-23T06:12:45.494Z,9.70
2022-12-23T06:15:12.813Z,9.71
2022-12-23T06:17:39.554Z,9.69
2022-12-23T06:20:07.115Z,9.66
2022-12-23T06:22:33.947Z,9.62
2022-12-23T06:25:00.596Z,9.58
2022-12-23T06:27:27.195Z,9.58
2022-12-23T06:29:53.980Z,9.59
2022-12-23T06:32:20.738Z,9.62
2022-12-23T06:34:49.109Z,9.65
2022-12-23T06:37:15.860Z,9.64
2022-12-23T06:39:42.546Z,9.61
2022-12-23T06:42:09.119Z,9.59
2022-12-23T06:44:35.746Z,9.55
2022-12-23T06:47:02.398Z,9.50
2022-12-23T06:49:29.226Z,9.45
2022-12-23T06:51:55.973Z,9.42
2022-12-23T06:54:22.907Z,9.45
2022-12-23T06:56:49.564Z,9.50
2022-12-23T06:59:16.117Z,9.52
2022-12-23T07:01:42.990Z,9.51
2022-12-23T07:04:10.592Z,9.50
2022-12-23T07:06:37.811Z,9.50
2022-12-23T07:09:04.587Z,9.47
2022-12-23T07:11:31.543Z,9.45
2022-12-23T07:13:59.707Z,9.43
2022-12-23T07:16:26.948Z,9.41
2022-12-23T07:18:53.795Z,9.42
2022-12-23T07:21:28.601Z,9.45
2022-12-23T07:23:56.511Z,9.51
2022-12-23T07:26:23.186Z,9.57
2022-12-23T07:28:49.863Z,9.63
2022-12-23T07:31:17.042Z,9.66
2022-12-23T07:33:44.076Z,9.67
2022-12-23T07:36:10.838Z,9.69
2022-12-23T07:38:37.659Z,9.70
2022-12-23T07:41:04.412Z,9.70
2022-12-23T07:43:31.094Z,9.72
2022-12-23T07:46:00.848Z,9.78
2022-12-23T07:48:28.313Z,9.87
2022-12-23T07:51:01.884Z,9.94
2022-12-23T07:53:28.827Z,9.98
2022-12-23T07:55:56.791Z,10.00
2022-12-23T07:58:24.393Z,10.01
2022-12-23T08:00:51.172Z,9.98
2022-12-23T08:03:18.108Z,9.96
2022-12-23T08:05:44.953Z,9.96
2022-12-23T08:08:12.061Z,9.95
2022-12-23T08:10:44.446Z,9.90
2022-12-23T08:13:14.712Z,9.85
2022-12-23T08:15:41.400Z,9.80
2022-12-23T08:18:08.163Z,9.76
2022-12-23T08:20:34.898Z,9.72
2022-12-23T08:23:01.700Z,9.69
2022-12-23T08:25:28.268Z,9.73
2022-12-23T08:27:55.104Z,9.81
2022-12-23T08:30:21.862Z,9.86
2022-12-23T08:32:48.608Z,9.91
2022-12-23T08:35:15.426Z,9.95
2022-12-23T08:37:42.167Z,9.98
2022-12-23T08:40:09.950Z,10.00
2022-12-23T08:42:36.792Z,10.02
2022-12-23T08:45:03.867Z,10.03
2022-12-23T08:47:30.569Z,10.05
2022-12-23T08:49:57.144Z,10.05
2022-12-23T08:52:23.829Z,10.05
2022-12-23T08:54:50.332Z,10.05
2022-12-23T08:57:17.090Z,10.03
2022-12-23T08:59:43.781Z,10.03
2022-12-23T09:02:12.116Z,10.03
2022-12-23T09:04:39.240Z,10.04
2022-12-23T09:07:06.226Z,10.06
2022-12-23T09:09:32.983Z,10.09
2022-12-23T09:11:59.846Z,10.16
2022-12-23T09:14:26.661Z,10.23
2022-12-23T09:16:53.359Z,10.30
2022-12-23T09:19:20.649Z,10.36
2022-12-23T09:21:47.323Z,10.39
2022-12-23T09:24:14.115Z,10.41
2022-12-23T09:26:40.967Z,10.41
2022-12-23T09:29:07.722Z,10.41
2022-12-23T09:31:37.736Z,10.40
2022-12-23T09:34:06.065Z,10.41
2022-12-23T09:36:32.820Z,10.43
2022-12-23T09:38:59.628Z,10.43
2022-12-23T09:42:01.625Z,10.43
2022-12-23T09:45:05.962Z,10.40
2022-12-23T09:47:34.182Z,10.35
2022-12-23T09:50:10.306Z,10.38
2022-12-23T09:52:57.544Z,10.41
2022-12-23T09:55:29.244Z,10.45
2022-12-23T09:58:03.556Z,10.51
2022-12-23T10:00:39.713Z,10.59
2022-12-23T10:03:40.582Z,10.65
2022-12-23T10:06:19.358Z,10.63
2022-12-23T10:08:49.052Z,10.57
2022-12-23T10:11:30.032Z,10.58
2022-12-23T10:14:02.099Z,10.56
2022-12-23T10:16:55.053Z,10.55
2022-12-23T10:19:43.373Z,10.57
2022-12-23T10:22:33.357Z,10.56
2022-12-23T10:25:02.139Z,10.57
2022-12-23T10:27:39.238Z,10.56
2022-12-23T10:30:54.109Z,10.55
2022-12-23T10:33:18.057Z,10.57
2022-12-23T10:35:58.319Z,10.62
2022-12-23T10:38:30.206Z,10.68
2022-12-23T10:41:09.036Z,10.72
2022-12-23T10:43:45.150Z,10.76
2022-12-23T10:46:23.930Z,10.81
2022-12-23T10:49:12.276Z,10.85
2022-12-23T10:51:47.836Z,10.86
2022-12-23T10:54:28.439Z,10.86
2022-12-23T10:56:55.643Z,10.85
2022-12-23T10:59:27.095Z,10.86
2022-12-23T11:02:23.043Z,10.88
2022-12-23T11:04:50.391Z,10.88
2022-12-23T11:10:23.541Z,10.85
2022-12-23T11:12:53.217Z,10.86
2022-12-23T11:15:26.116Z,10.87
2022-12-23T11:18:12.775Z,10.89
2022-12-23T11:20:44.454Z,10.96
2022-12-23T11:23:33.210Z,11.04
2022-12-23T11:26:18.790Z,11.12
2022-12-23T11:28:53.131Z,11.15
2022-12-23T11:31:35.513Z,11.13
2022-12-23T11:34:14.397Z,11.13
2022-12-23T11:36:41.484Z,11.13
2022-12-23T11:39:14.205Z,11.11
2022-12-23T11:41:50.092Z,11.12
2022-12-23T11:44:22.700Z,11.12
2022-12-23T11:46:50.567Z,11.15
2022-12-23T11:49:28.035Z,11.19
2022-12-23T11:52:16.914Z,11.23
2022-12-23T11:54:54.453Z,11.22
2022-12-23T11:57:30.883Z,11.15
2022-12-23T12:00:02.540Z,11.12
2022-12-23T12:02:43.630Z,11.12
2022-12-23T12:05:16.592Z,11.12
2022-12-23T12:07:45.250Z,11.12
2022-12-23T12:10:33.522Z,11.10
2022-12-23T12:13:05.952Z,11.09
2022-12-23T12:15:53.201Z,11.10
2022-12-23T12:18:22.171Z,11.11
2022-12-23T12:20:53.984Z,11.12
2022-12-23T12:23:39.528Z,11.09
2022-12-23T12:26:12.555Z,11.08
2022-12-23T12:28:43.801Z,11.08
2022-12-23T12:31:26.868Z,11.07
2022-12-23T12:34:13.738Z,11.07
2022-12-23T12:36:59.832Z,11.16
2022-12-23T12:39:41.362Z,11.27
2022-12-23T12:42:21.886Z,11.36
2022-12-23T12:45:16.633Z,11.38
2022-12-23T12:48:13.079Z,11.41
2022-12-23T12:51:10.936Z,11.40
2022-12-23T12:53:46.950Z,11.35
2022-12-23T12:56:30.992Z,11.33
2022-12-23T12:58:58.588Z,11.28
2022-12-23T13:01:56.968Z,11.26
2022-12-23T13:04:59.496Z,11.17
2022-12-23T13:07:54.360Z,11.15
2022-12-23T13:10:53.211Z,11.09
2022-12-23T13:13:51.194Z,11.04
2022-12-23T13:16:36.319Z,11.00
2022-12-23T13:19:40.823Z,10.99
2022-12-23T13:22:16.484Z,11.00
2022-12-23T13:25:03.819Z,11.01
2022-12-23T13:27:41.239Z,11.02
2022-12-23T13:30:18.033Z,11.03
2022-12-23T13:33:09.144Z,11.06
2022-12-23T13:36:33.827Z,11.18
2022-12-23T13:39:25.312Z,11.33
2022-12-23T13:41:58.588Z,11.44
2022-12-23T13:44:31.170Z,11.50
2022-12-23T13:47:16.356Z,11.56
2022-12-23T13:49:53.067Z,11.60
2022-12-23T13:52:44.270Z,11.61
2022-12-23T13:55:16.830Z,11.61
2022-12-23T13:58:18.109Z,11.61
2022-12-23T14:00:45.467Z,11.59
2022-12-23T14:03:15.069Z,11.57
2022-12-23T14:05:45.314Z,11.55
2022-12-23T14:08:26.615Z,11.53
2022-12-23T14:11:27.405Z,11.48
2022-12-23T14:14:06.109Z,11.44
2022-12-23T14:16:45.184Z,11.41
2022-12-23T14:19:11.910Z,11.42
2022-12-23T14:21:46.738Z,11.44
2022-12-23T14:24:54.908Z,11.50
2022-12-23T14:27:33.828Z,11.53
2022-12-23T14:30:15.686Z,11.53
2022-12-23T14:32:49.392Z,11.51
2022-12-23T14:35:25.188Z,11.48
2022-12-23T14:38:08.606Z,11.45
2022-12-23T14:40:38.263Z,11.41
2022-12-23T14:43:26.808Z,11.38
2022-12-23T14:45:54.600Z,11.33
2022-12-23T14:48:33.369Z,11.30
2022-12-23T14:51:23.610Z,11.27
2022-12-23T14:53:54.132Z,11.26
2022-12-23T14:56:39.101Z,11.23
2022-12-23T14:59:05.749Z,11.22
2022-12-23T15:01:32.513Z,11.22
2022-12-23T15:04:05.459Z,11.23
2022-12-23T15:06:45.364Z,11.23
2022-12-23T15:09:31.633Z,11.23
2022-12-23T15:12:01.941Z,11.21
2022-12-23T15:14:34.517Z,11.17
2022-12-23T15:17:18.786Z,11.13
2022-12-23T15:19:47.733Z,11.07
2022-12-23T15:22:23.650Z,11.02
2022-12-23T15:24:55.276Z,10.97
2022-12-23T15:27:30.213Z,10.92
2022-12-23T15:29:58.241Z,10.85
2022-12-23T15:32:26.799Z,10.77
2022-12-23T15:35:05.674Z,10.72
2022-12-23T15:37:33.052Z,10.70
2022-12-23T15:40:09.513Z,10.70
2022-12-23T15:42:39.328Z,10.71
2022-12-23T15:45:36.993Z,10.69
2022-12-23T15:48:06.677Z,10.65
2022-12-23T15:50:40.607Z,10.63
2022-12-23T15:53:10.801Z,10.61
2022-12-23T15:55:40.715Z,10.55
2022-12-23T15:58:07.998Z,10.47
2022-12-23T16:00:51.643Z,10.42
2022-12-23T16:03:34.564Z,10.36
2022-12-23T16:06:10.628Z,10.31
2022-12-23T16:08:38.792Z,10.30
2022-12-23T16:11:22.983Z,10.30
2022-12-23T16:14:02.371Z,10.27
2022-12-23T16:16:42.859Z,10.24
2022-12-23T16:19:51.730Z,10.19
2022-12-23T16:22:31.001Z,10.12
2022-12-23T16:25:19.917Z,10.06
2022-12-23T16:27:54.816Z,10.00
2022-12-23T16:30:25.906Z,9.94
2022-12-23T16:32:56.244Z,9.87
2022-12-23T16:35:28.455Z,9.80
2022-12-23T16:38:16.866Z,9.79
2022-12-23T16:40:46.485Z,9.82
2022-12-23T16:43:13.972Z,9.83
2022-12-23T16:45:41.321Z,9.79
2022-12-23T16:48:23.915Z,9.74
2022-12-23T16:50:53.528Z,9.70
2022-12-23T16:53:20.476Z,9.67
2022-12-23T16:55:55.061Z,9.64
2022-12-23T16:58:25.629Z,9.59
2022-12-23T17:00:53.375Z,9.56
2022-12-23T17:03:21.162Z,9.53
2022-12-23T17:05:48.560Z,9.48
2022-12-23T17:08:15.503Z,9.49
2022-12-23T17:10:44.785Z,9.52
2022-12-23T17:13:14.113Z,9.51
2022-12-23T17:15:40.936Z,9.50
2022-12-23T17:18:16.744Z,9.48
2022-12-23T17:20:46.256Z,9.48
2022-12-23T17:23:29.665Z,9.47
2022-12-23T17:25:57.177Z,9.43
2022-12-23T17:28:28.967Z,9.38
2022-12-23T17:30:56.371Z,9.34
2022-12-23T17:33:26.892Z,9.31
2022-12-23T17:35:53.596Z,9.30
2022-12-23T17:38:20.154Z,9.32
2022-12-23T17:40:48.221Z,9.32
2022-12-23T17:43:16.586Z,9.34
2022-12-23T17:45:44.480Z,9.36
2022-12-23T17:48:17.933Z,9.35
2022-12-23T17:50:47.884Z,9.34
2022-12-23T17:53:19.662Z,9.33
2022-12-23T17:55:46.636Z,9.31
2022-12-23T17:58:14.688Z,9.27
2022-12-23T18:00:41.829Z,9.23
2022-12-23T18:03:23.398Z,9.19
2022-12-23T18:05:54.307Z,9.17
2022-12-23T18:08:26.007Z,9.21
2022-12-23T18:10:52.658Z,9.26
2022-12-23T18:13:20.014Z,9.31
2022-12-23T18:15:47.802Z,9.33
2022-12-23T18:18:27.249Z,9.34
2022-12-23T18:20:58.463Z,9.34
2022-12-23T18:23:28.215Z,9.33
2022-12-23T18:25:56.043Z,9.32
2022-12-23T18:28:23.463Z,9.32
2022-12-23T18:30:52.324Z,9.30
2022-12-23T18:33:19.740Z,9.28
2022-12-23T18:35:49.354Z,9.27
2022-12-23T18:38:17.861Z,9.31
2022-12-23T18:40:45.537Z,9.37
2022-12-23T18:43:22.020Z,9.41
2022-12-23T18:45:53.286Z,9.44
2022-12-23T18:48:21.584Z,9.44
2022-12-23T18:50:49.021Z,9.42
2022-12-23T18:53:25.392Z,9.38
2022-12-23T18:55:53.790Z,9.34
2022-12-23T18:58:21.479Z,9.25
2022-12-23T19:00:49.595Z,9.21
2022-12-23T19:03:21.087Z,9.24
2022-12-23T19:05:49.048Z,9.31
2022-12-23T19:08:20.284Z,9.32
2022-12-23T19:10:51.542Z,9.28
2022-12-23T19:13:19.194Z,9.30
2022-12-23T19:15:46.324Z,9.32
2022-12-23T19:18:15.120Z,9.34
2022-12-23T19:20:46.057Z,9.30
2022-12-23T19:23:13.440Z,9.27
2022-12-23T19:25:42.134Z,9.28
2022-12-23T19:28:09.911Z,9.34
2022-12-23T19:30:36.921Z,9.42
2022-12-23T19:33:03.794Z,9.48
2022-12-23T19:35:30.523Z,9.53
2022-12-23T19:37:57.364Z,9.55
2022-12-23T19:40:24.114Z,9.55
2022-12-23T19:42:50.794Z,9.56
2022-12-23T19:45:17.396Z,9.56
2022-12-23T19:47:44.332Z,9.55
2022-12-23T19:50:11.665Z,9.53
2022-12-23T19:52:38.423Z,9.51
2022-12-23T19:55:05.775Z,9.50
2022-12-23T19:57:33.648Z,9.53
2022-12-23T20:00:01.941Z,9.58
2022-12-23T20:02:38.803Z,9.64
2022-12-23T20:05:06.285Z,9.68
2022-12-23T20:07:35.310Z,9.70
2022-12-23T20:10:02.645Z,9.73
2022-12-23T20:12:29.330Z,9.75
2022-12-23T20:14:55.984Z,9.78
2022-12-23T20:17:22.824Z,9.78
2022-12-23T20:19:49.492Z,9.74
2022-12-23T20:22:16.191Z,9.68
2022-12-23T20:24:43.613Z,9.64
2022-12-23T20:27:12.130Z,9.62
2022-12-23T20:29:40.711Z,9.66
2022-12-23T20:32:07.572Z,9.71
2022-12-23T20:34:39.084Z,9.78
2022-12-23T20:37:07.007Z,9.83
2022-12-23T20:39:33.843Z,9.86
2022-12-23T20:42:00.683Z,9.89
2022-12-23T20:44:36.558Z,9.95
2022-12-23T20:47:07.423Z,9.97
2022-12-23T20:49:34.294Z,9.95
2022-12-23T20:52:01.759Z,9.88
2022-12-23T20:54:33.311Z,9.80
2022-12-23T20:57:02.524Z,9.75
2022-12-23T20:59:29.473Z,9.77
2022-12-23T21:01:59.099Z,9.84
2022-12-23T21:04:26.341Z,9.90
2022-12-23T21:06:53.016Z,9.93
2022-12-23T21:09:20.170Z,9.96
2022-12-23T21:11:48.048Z,9.98
2022-12-23T21:14:16.094Z,9.99
2022-12-23T21:16:43.029Z,9.98
2022-12-23T21:19:24.453Z,9.96
2022-12-23T21:21:52.375Z,9.94
2022-12-23T21:24:19.792Z,9.94
2022-12-23T21:26:55.738Z,9.96
2022-12-23T21:29:23.797Z,10.03
2022-12-23T21:31:50.568Z,10.11
2022-12-23T21:34:18.165Z,10.15
2022-12-23T21:36:45.032Z,10.18
2022-12-23T21:39:15.796Z,10.19
2022-12-23T21:41:42.615Z,10.19
2022-12-23T21:44:11.711Z,10.18
2022-12-23T21:46:38.442Z,10.17
2022-12-23T21:49:05.329Z,10.15
2022-12-23T21:51:41.794Z,10.12
2022-12-23T21:54:10.995Z,10.08
2022-12-23T21:56:39.195Z,10.09
2022-12-23T21:59:08.702Z,10.12
2022-12-23T22:01:35.655Z,10.14
2022-12-23T22:04:02.718Z,10.15
2022-12-23T22:06:32.817Z,10.15
2022-12-23T22:08:59.905Z,10.15
2022-12-23T22:11:30.175Z,10.13
2022-12-23T22:13:58.818Z,10.13
2022-12-23T22:16:28.109Z,10.11
2022-12-23T22:18:57.000Z,10.08
2022-12-23T22:21:25.489Z,10.06
2022-12-23T22:23:54.001Z,10.07
2022-12-23T22:26:25.605Z,10.11
2022-12-23T22:28:55.081Z,10.13
2022-12-23T22:31:31.738Z,10.15
2022-12-23T22:33:59.419Z,10.18
2022-12-23T22:36:26.868Z,10.18
2022-12-23T22:38:56.172Z,10.18
2022-12-23T22:41:24.313Z,10.15
2022-12-23T22:43:51.137Z,10.11
2022-12-23T22:46:18.552Z,10.08
2022-12-23T22:48:46.622Z,10.05
2022-12-23T22:51:16.668Z,10.07
2022-12-23T22:53:43.399Z,10.11
2022-12-23T22:56:12.729Z,10.14
2022-12-23T22:58:40.128Z,10.16
2022-12-23T23:01:16.815Z,10.16
2022-12-23T23:03:43.535Z,10.15
2022-12-23T23:06:11.631Z,10.15
2022-12-23T23:08:38.475Z,10.15
2022-12-23T23:11:05.789Z,10.15
2022-12-23T23:13:35.143Z,10.12
2022-12-23T23:16:02.713Z,10.10
2022-12-23T23:18:30.237Z,10.10
2022-12-23T23:20:57.134Z,10.15
2022-12-23T23:23:23.875Z,10.18
2022-12-23T23:25:50.679Z,10.19
2022-12-23T23:28:17.949Z,10.21
2022-12-23T23:30:45.185Z,10.22
2022-12-23T23:33:12.040Z,10.22
2022-12-23T23:35:38.661Z,10.20
2022-12-23T23:38:05.520Z,10.19
2022-12-23T23:40:32.376Z,10.16
2022-12-23T23:42:59.199Z,10.13
2022-12-23T23:45:27.489Z,10.11
2022-12-23T23:47:55.062Z,10.13
2022-12-23T23:50:22.489Z,10.19
2022-12-23T23:52:49.179Z,10.23
2022-12-23T23:55:16.264Z,10.25
2022-12-23T23:57:42.912Z,10.25
